Orcas Island Airport

Airport
ICAO code: 
KORS
Summary
ICAO Region: 
NAM
Territory: 
Location: 
Eastsound, Washington,
Coordinates: 
Aerial View: 
48° 42' 24.726" N, 122° 54' 36.54" W
Airport BS: 
Bird Strike
Metar
Observation
KORS 021615Z AUTO 00000KT 10SM OVC046 07/05 A3024 RMK AO2
Station
Eastsound, Orcas Island Airport
Date/Time
2021-12-02 16:15:00
Wind direction
Wind speed
00 kts
Lowest cloud amount
overcast
Temperature
7°C
Dew point
5°C
Humidity
87%
Weather condition
n/a

Description

Orcas Island Airport is a public airport located 2 km north of the central business district of Eastsound on Orcas Island in San Juan County, Washington.

Climatology

Temperate Marine climate/Oceanic climate (Köppen climate classification Cfb). Moderately cool summer and comparatively warm winter.

Runways

Designator Length Width Surface Rops
16/34 884 18 ASPH-G Yes/Yes
Airport map: 
Aerial View: 

SKYbrary Partners:

Safety knowledge contributed by: